createdAt,value
2022-12-23T00:02:06.240Z,7.00
2022-12-23T00:04:53.338Z,7.60
2022-12-23T00:07:40.465Z,7.70
2022-12-23T00:10:27.616Z,7.80
2022-12-23T00:13:33.829Z,8.00
2022-12-23T00:16:21.267Z,8.10
2022-12-23T00:19:08.442Z,8.20
2022-12-23T00:21:55.490Z,8.30
2022-12-23T00:24:42.508Z,8.40
2022-12-23T00:27:32.947Z,8.50
2022-12-23T00:30:24.468Z,8.60
2022-12-23T00:33:11.527Z,8.60
2022-12-23T00:35:58.814Z,8.60
2022-12-23T00:39:04.912Z,8.70
2022-12-23T00:42:10.827Z,8.60
2022-12-23T00:45:15.398Z,8.80
2022-12-23T00:48:21.493Z,8.90
2022-12-23T00:51:08.534Z,8.90
2022-12-23T00:53:55.635Z,9.00
2022-12-23T00:56:42.920Z,9.00
2022-12-23T00:59:31.001Z,9.10
2022-12-23T01:02:36.757Z,9.20
2022-12-23T01:05:36.433Z,9.30
2022-12-23T01:08:23.432Z,9.30
2022-12-23T01:11:11.763Z,9.30
2022-12-23T01:13:59.189Z,9.40
2022-12-23T01:16:46.282Z,9.50
2022-12-23T01:19:33.563Z,9.50
2022-12-23T01:22:20.545Z,9.50
2022-12-23T01:25:08.095Z,9.50
2022-12-23T01:27:55.219Z,9.60
2022-12-23T01:30:42.275Z,9.50
2022-12-23T01:33:29.448Z,9.50
2022-12-23T01:36:16.694Z,9.50
2022-12-23T01:39:03.861Z,9.50
2022-12-23T01:42:09.320Z,9.50
2022-12-23T01:45:05.498Z,9.50
2022-12-23T01:48:19.907Z,9.50
2022-12-23T01:51:12.837Z,9.50
2022-12-23T01:54:01.528Z,9.50
2022-12-23T01:56:48.968Z,8.70
2022-12-23T01:59:54.803Z,9.50
2022-12-23T02:03:12.143Z,9.40
2022-12-23T02:06:22.356Z,9.50
2022-12-23T02:09:17.757Z,9.50
2022-12-23T02:12:13.646Z,9.50
2022-12-23T02:15:19.359Z,9.40
2022-12-23T02:18:24.824Z,9.40
2022-12-23T02:21:32.398Z,9.40
2022-12-23T02:24:34.610Z,9.40
2022-12-23T02:27:36.504Z,9.50
2022-12-23T02:31:00.574Z,9.40
2022-12-23T02:34:10.652Z,9.50
2022-12-23T02:37:34.303Z,9.60
2022-12-23T02:40:36.631Z,9.60
2022-12-23T02:43:35.608Z,9.60
2022-12-23T02:46:30.559Z,9.80
2022-12-23T02:49:29.302Z,9.70
2022-12-23T02:52:20.795Z,9.70
2022-12-23T02:55:17.200Z,9.80
2022-12-23T02:58:09.744Z,11.00
2022-12-23T03:00:57.959Z,9.80
2022-12-23T03:03:47.538Z,9.80
2022-12-23T03:06:48.191Z,9.80
2022-12-23T03:10:12.914Z,9.90
2022-12-23T03:13:02.948Z,9.90
2022-12-23T03:16:14.459Z,9.90
2022-12-23T03:19:43.883Z,9.80
2022-12-23T03:22:46.320Z,9.80
2022-12-23T03:25:40.273Z,9.90
2022-12-23T03:28:51.282Z,9.80
2022-12-23T03:31:41.585Z,9.80
2022-12-23T03:34:33.995Z,9.80
2022-12-23T03:37:23.579Z,9.80
2022-12-23T03:40:23.647Z,9.80
2022-12-23T03:43:16.307Z,9.70
2022-12-23T03:46:10.346Z,9.80
2022-12-23T03:49:02.553Z,9.80
2022-12-23T03:51:59.637Z,9.80
2022-12-23T03:54:52.970Z,9.80
2022-12-23T03:58:21.891Z,9.80
2022-12-23T04:01:34.127Z,9.70
2022-12-23T04:04:34.395Z,9.70
2022-12-23T04:07:34.027Z,9.80
2022-12-23T04:10:22.550Z,9.80
2022-12-23T04:13:09.636Z,9.80
2022-12-23T04:16:01.267Z,9.80
2022-12-23T04:18:48.420Z,9.80
2022-12-23T04:21:35.659Z,9.80
2022-12-23T04:24:23.277Z,9.70
2022-12-23T04:27:13.996Z,9.80
2022-12-23T04:30:01.170Z,9.80
2022-12-23T04:32:48.318Z,9.80
2022-12-23T04:35:35.377Z,9.70
2022-12-23T04:38:22.444Z,9.70
2022-12-23T04:41:09.622Z,9.80
2022-12-23T04:43:56.712Z,9.80
2022-12-23T04:46:43.889Z,9.80
2022-12-23T04:49:31.788Z,9.90
2022-12-23T04:52:19.011Z,9.90
2022-12-23T04:55:06.666Z,9.80
2022-12-23T04:57:53.753Z,9.90
2022-12-23T05:00:40.847Z,9.90
2022-12-23T05:03:27.981Z,9.90
2022-12-23T05:06:15.205Z,9.90
2022-12-23T05:09:03.000Z,10.00
2022-12-23T05:11:50.064Z,9.90
2022-12-23T05:14:37.080Z,9.90
2022-12-23T05:17:25.305Z,9.00
2022-12-23T05:20:12.615Z,9.90
2022-12-23T05:22:59.667Z,9.80
2022-12-23T05:25:52.694Z,9.90
2022-12-23T05:28:39.798Z,9.90
2022-12-23T05:31:26.855Z,9.80
2022-12-23T05:34:14.023Z,9.70
2022-12-23T05:37:01.102Z,9.60
2022-12-23T05:39:48.142Z,9.50
2022-12-23T05:42:35.213Z,9.50
2022-12-23T05:45:22.389Z,9.30
2022-12-23T05:48:09.708Z,9.30
2022-12-23T05:50:56.886Z,9.20
2022-12-23T05:53:43.941Z,9.20
2022-12-23T05:56:30.985Z,9.20
2022-12-23T05:59:18.182Z,9.10
2022-12-23T06:02:05.377Z,9.10
2022-12-23T06:04:52.534Z,9.10
2022-12-23T06:07:40.567Z,9.10
2022-12-23T06:10:27.750Z,10.40
2022-12-23T06:13:15.059Z,9.00
2022-12-23T06:16:02.143Z,9.00
2022-12-23T06:18:49.285Z,9.00
2022-12-23T06:21:36.319Z,8.90
2022-12-23T06:24:23.525Z,8.90
2022-12-23T06:27:11.278Z,8.80
2022-12-23T06:29:58.343Z,8.80
2022-12-23T06:32:45.584Z,8.80
2022-12-23T06:35:32.805Z,8.70
2022-12-23T06:38:19.847Z,8.70
2022-12-23T06:41:07.659Z,8.70
2022-12-23T06:43:54.970Z,8.70
2022-12-23T06:46:42.337Z,8.70
2022-12-23T06:49:29.476Z,8.70
2022-12-23T06:52:16.657Z,8.70
2022-12-23T06:55:03.959Z,10.80
2022-12-23T06:57:51.186Z,8.60
2022-12-23T07:00:38.266Z,8.60
2022-12-23T07:03:25.474Z,8.60
2022-12-23T07:06:12.791Z,8.60
2022-12-23T07:08:59.862Z,8.50
2022-12-23T07:11:46.911Z,8.50
2022-12-23T07:14:33.990Z,8.50
2022-12-23T07:17:21.017Z,8.60
2022-12-23T07:20:08.659Z,8.50
2022-12-23T07:22:57.166Z,8.50
2022-12-23T07:25:44.575Z,8.50
2022-12-23T07:28:31.684Z,8.40
2022-12-23T07:31:18.795Z,8.50
2022-12-23T07:34:05.866Z,8.60
2022-12-23T07:36:53.069Z,8.50
2022-12-23T07:39:40.103Z,8.40
2022-12-23T07:42:45.132Z,8.50
2022-12-23T07:45:33.529Z,8.50
2022-12-23T07:48:20.596Z,8.50
2022-12-23T07:51:07.837Z,8.50
2022-12-23T07:53:55.092Z,8.50
2022-12-23T07:56:42.103Z,8.40
2022-12-23T07:59:29.214Z,8.40
2022-12-23T08:02:16.856Z,8.40
2022-12-23T08:05:04.334Z,8.40
2022-12-23T08:07:52.181Z,8.40
2022-12-23T08:10:44.451Z,8.80
2022-12-23T08:13:38.143Z,8.40
2022-12-23T08:16:25.202Z,8.40
2022-12-23T08:19:12.221Z,8.40
2022-12-23T08:21:59.437Z,8.40
2022-12-23T08:24:46.507Z,8.40
2022-12-23T08:27:33.911Z,8.50
2022-12-23T08:30:21.145Z,8.40
2022-12-23T08:33:08.241Z,8.50
2022-12-23T08:35:55.313Z,8.40
2022-12-23T08:38:42.677Z,8.60
2022-12-23T08:41:32.709Z,9.60
2022-12-23T08:44:20.717Z,8.60
2022-12-23T08:47:07.752Z,8.70
2022-12-23T08:49:54.808Z,8.60
2022-12-23T08:52:41.842Z,8.60
2022-12-23T08:55:28.926Z,8.60
2022-12-23T08:58:16.523Z,8.60
2022-12-23T09:01:05.618Z,8.60
2022-12-23T09:03:52.868Z,8.60
2022-12-23T09:06:41.976Z,8.70
2022-12-23T09:09:29.094Z,8.70
2022-12-23T09:12:16.137Z,8.70
2022-12-23T09:15:03.254Z,8.70
2022-12-23T09:17:50.392Z,8.80
2022-12-23T09:20:38.309Z,8.70
2022-12-23T09:23:25.480Z,8.80
2022-12-23T09:26:19.627Z,8.70
2022-12-23T09:29:06.680Z,8.80
2022-12-23T09:31:53.755Z,8.80
2022-12-23T09:34:40.903Z,8.70
2022-12-23T09:37:27.998Z,8.70
2022-12-23T09:40:19.048Z,8.70
2022-12-23T09:43:40.972Z,8.70
2022-12-23T09:46:32.710Z,8.70
2022-12-23T09:49:22.815Z,8.80
2022-12-23T09:52:14.004Z,8.80
2022-12-23T09:55:01.182Z,8.80
2022-12-23T09:58:01.667Z,8.90
2022-12-23T10:01:08.975Z,9.00
2022-12-23T10:04:23.301Z,8.90
2022-12-23T10:07:38.017Z,8.90
2022-12-23T10:10:35.602Z,9.00
2022-12-23T10:13:27.017Z,9.00
2022-12-23T10:16:20.784Z,9.00
2022-12-23T10:19:12.858Z,9.00
2022-12-23T10:22:06.830Z,9.00
2022-12-23T10:24:56.873Z,8.90
2022-12-23T10:27:44.728Z,9.80
2022-12-23T10:31:17.203Z,8.90
2022-12-23T10:34:02.723Z,8.90
2022-12-23T10:37:08.333Z,9.90
2022-12-23T10:40:16.442Z,8.90
2022-12-23T10:43:03.512Z,8.80
2022-12-23T10:46:09.283Z,8.80
2022-12-23T10:49:28.065Z,8.80
2022-12-23T10:52:23.611Z,8.80
2022-12-23T10:55:34.101Z,8.80
2022-12-23T10:58:22.204Z,8.90
2022-12-23T11:01:21.869Z,9.00
2022-12-23T11:04:19.540Z,9.00
2022-12-23T11:10:24.435Z,10.20
2022-12-23T11:13:24.688Z,9.30
2022-12-23T11:16:25.539Z,9.40
2022-12-23T11:19:16.627Z,8.90
2022-12-23T11:22:03.737Z,9.40
2022-12-23T11:24:51.365Z,9.50
2022-12-23T11:27:38.476Z,9.60
2022-12-23T11:30:25.937Z,9.70
2022-12-23T11:33:46.131Z,10.50
2022-12-23T11:36:34.393Z,9.90
2022-12-23T11:39:46.340Z,9.90
2022-12-23T11:42:34.501Z,10.00
2022-12-23T11:45:24.273Z,10.30
2022-12-23T11:48:29.488Z,9.90
2022-12-23T11:51:25.776Z,9.80
2022-12-23T11:54:18.800Z,9.70
2022-12-23T11:57:19.674Z,9.60
2022-12-23T12:00:17.865Z,9.50
2022-12-23T12:03:06.981Z,9.50
2022-12-23T12:06:06.298Z,9.40
2022-12-23T12:08:56.049Z,9.40
2022-12-23T12:11:52.722Z,9.50
2022-12-23T12:14:54.203Z,9.50
2022-12-23T12:17:47.398Z,9.60
2022-12-23T12:20:40.631Z,9.60
2022-12-23T12:24:17.674Z,9.70
2022-12-23T12:27:07.625Z,9.70
2022-12-23T12:30:07.714Z,9.60
2022-12-23T12:33:05.160Z,9.50
2022-12-23T12:36:14.047Z,9.60
2022-12-23T12:39:01.232Z,9.70
2022-12-23T12:42:05.477Z,9.70
2022-12-23T12:44:53.115Z,9.80
2022-12-23T12:48:07.020Z,9.80
2022-12-23T12:51:22.571Z,9.90
2022-12-23T12:54:33.515Z,9.90
2022-12-23T12:57:22.744Z,9.90
2022-12-23T13:00:22.263Z,9.90
2022-12-23T13:03:21.424Z,9.90
2022-12-23T13:06:23.827Z,9.90
2022-12-23T13:09:32.202Z,9.90
2022-12-23T13:12:40.656Z,9.80
2022-12-23T13:15:31.589Z,9.80
2022-12-23T13:18:25.191Z,9.70
2022-12-23T13:21:23.473Z,9.60
2022-12-23T13:24:27.821Z,9.60
2022-12-23T13:27:20.344Z,9.50
2022-12-23T13:30:13.886Z,9.60
2022-12-23T13:33:12.245Z,9.50
2022-12-23T13:36:17.388Z,9.50
2022-12-23T13:39:26.321Z,9.50
2022-12-23T13:42:24.032Z,9.40
2022-12-23T13:45:16.769Z,9.40
2022-12-23T13:48:32.751Z,9.40
2022-12-23T13:51:37.440Z,9.40
2022-12-23T13:54:52.680Z,9.30
2022-12-23T13:58:01.063Z,9.30
2022-12-23T14:00:58.920Z,9.30
2022-12-23T14:03:48.613Z,9.30
2022-12-23T14:06:36.702Z,9.30
2022-12-23T14:09:30.775Z,10.90
2022-12-23T14:12:34.311Z,9.20
2022-12-23T14:15:46.767Z,9.20
2022-12-23T14:18:55.428Z,9.20
2022-12-23T14:22:11.464Z,9.20
2022-12-23T14:25:26.897Z,9.20
2022-12-23T14:28:38.663Z,9.20
2022-12-23T14:31:47.701Z,9.30
2022-12-23T14:34:36.114Z,9.30
2022-12-23T14:37:24.189Z,9.30
2022-12-23T14:40:39.436Z,9.30
2022-12-23T14:43:45.636Z,9.20
2022-12-23T14:46:35.653Z,9.20
2022-12-23T14:49:43.139Z,9.20
2022-12-23T14:52:58.567Z,9.20
2022-12-23T14:55:46.851Z,9.20
2022-12-23T14:58:52.459Z,9.20
2022-12-23T15:01:48.099Z,9.20
2022-12-23T15:04:51.225Z,9.10
2022-12-23T15:07:42.704Z,9.10
2022-12-23T15:10:30.743Z,9.00
2022-12-23T15:13:20.237Z,9.00
2022-12-23T15:16:07.832Z,8.90
2022-12-23T15:18:57.153Z,8.90
2022-12-23T15:21:47.565Z,8.90
2022-12-23T15:24:41.936Z,8.80
2022-12-23T15:27:32.832Z,8.80
2022-12-23T15:30:20.724Z,8.80
2022-12-23T15:33:35.055Z,8.80
2022-12-23T15:36:32.306Z,8.80
2022-12-23T15:39:27.887Z,8.80
2022-12-23T15:42:20.705Z,8.80
2022-12-23T15:45:39.058Z,8.80
2022-12-23T15:48:29.435Z,8.70
2022-12-23T15:54:53.688Z,8.70
2022-12-23T15:57:49.985Z,8.70
2022-12-23T16:00:50.639Z,8.70
2022-12-23T16:03:40.403Z,8.70
2022-12-23T16:06:32.942Z,8.70
2022-12-23T16:09:31.329Z,8.70
2022-12-23T16:12:25.518Z,8.70
2022-12-23T16:15:28.276Z,8.80
2022-12-23T16:18:24.180Z,8.80
2022-12-23T16:21:13.916Z,8.80
2022-12-23T16:24:03.032Z,8.80
2022-12-23T16:26:50.192Z,8.80
2022-12-23T16:29:37.381Z,8.80
2022-12-23T16:32:24.480Z,8.80
2022-12-23T16:35:12.733Z,8.70
2022-12-23T16:38:11.989Z,8.70
2022-12-23T16:40:59.002Z,8.70
2022-12-23T16:43:51.872Z,8.70
2022-12-23T16:46:43.500Z,8.70
2022-12-23T16:49:33.817Z,8.70
2022-12-23T16:52:21.483Z,8.70
2022-12-23T16:55:17.306Z,8.70
2022-12-23T16:58:04.377Z,8.70
2022-12-23T17:00:52.505Z,8.70
2022-12-23T17:03:40.105Z,8.70
2022-12-23T17:06:27.412Z,8.70
2022-12-23T17:09:14.521Z,8.70
2022-12-23T17:12:01.638Z,8.70
2022-12-23T17:14:48.653Z,8.70
2022-12-23T17:17:36.302Z,8.70
2022-12-23T17:20:24.419Z,8.70
2022-12-23T17:23:29.695Z,8.70
2022-12-23T17:26:16.911Z,8.60
2022-12-23T17:29:05.014Z,8.60
2022-12-23T17:31:52.473Z,8.60
2022-12-23T17:34:40.043Z,8.60
2022-12-23T17:37:28.520Z,8.60
2022-12-23T17:40:16.432Z,8.60
2022-12-23T17:43:03.470Z,8.60
2022-12-23T17:45:50.810Z,8.60
2022-12-23T17:48:37.881Z,8.60
2022-12-23T17:51:27.386Z,8.60
2022-12-23T17:54:23.528Z,8.60
2022-12-23T17:57:22.819Z,8.60
2022-12-23T18:00:10.414Z,8.50
2022-12-23T18:03:03.439Z,8.60
2022-12-23T18:05:55.665Z,8.60
2022-12-23T18:08:46.496Z,8.60
2022-12-23T18:11:36.467Z,8.60
2022-12-23T18:14:27.871Z,8.60
2022-12-23T18:17:16.035Z,8.60
2022-12-23T18:20:04.278Z,8.60
2022-12-23T18:22:54.328Z,8.50
2022-12-23T18:25:41.623Z,8.60
2022-12-23T18:28:28.797Z,8.60
2022-12-23T18:31:19.845Z,8.60
2022-12-23T18:34:14.944Z,8.50
2022-12-23T18:37:02.318Z,8.60
2022-12-23T18:39:49.601Z,8.60
2022-12-23T18:42:38.445Z,8.60
2022-12-23T18:45:33.824Z,8.60
2022-12-23T18:48:21.664Z,8.60
2022-12-23T18:51:16.679Z,8.60
2022-12-23T18:54:03.783Z,8.60
2022-12-23T18:56:50.904Z,8.60
2022-12-23T18:59:38.921Z,8.60
2022-12-23T19:02:26.177Z,8.60
2022-12-23T19:05:20.217Z,8.00
2022-12-23T19:08:07.463Z,8.60
2022-12-23T19:10:55.101Z,8.60
2022-12-23T19:13:43.134Z,8.60
2022-12-23T19:16:30.391Z,8.70
2022-12-23T19:19:17.485Z,8.70
2022-12-23T19:22:04.920Z,8.70
2022-12-23T19:25:04.745Z,8.60
2022-12-23T19:27:53.229Z,8.60
2022-12-23T19:30:41.463Z,8.50
2022-12-23T19:33:28.592Z,8.50
2022-12-23T19:36:24.504Z,8.40
2022-12-23T19:39:16.169Z,8.30
2022-12-23T19:42:03.826Z,8.30
2022-12-23T19:44:50.887Z,8.30
2022-12-23T19:47:38.724Z,8.30
2022-12-23T19:50:27.193Z,8.40
2022-12-23T19:53:15.663Z,8.50
2022-12-23T19:56:10.362Z,8.60
2022-12-23T19:58:57.359Z,8.60
2022-12-23T20:01:44.883Z,8.60
2022-12-23T20:04:32.070Z,8.60
2022-12-23T20:07:19.147Z,8.50
2022-12-23T20:10:07.053Z,8.50
2022-12-23T20:12:54.138Z,8.50
2022-12-23T20:15:41.309Z,8.40
2022-12-23T20:18:29.056Z,8.50
2022-12-23T20:21:16.238Z,8.50
2022-12-23T20:24:05.317Z,8.50
2022-12-23T20:26:52.420Z,8.60
2022-12-23T20:29:39.410Z,8.50
2022-12-23T20:32:26.551Z,8.50
2022-12-23T20:35:13.688Z,8.50
2022-12-23T20:38:00.765Z,8.60
2022-12-23T20:40:47.874Z,8.60
2022-12-23T20:43:35.343Z,8.70
2022-12-23T20:46:23.024Z,8.70
2022-12-23T20:49:10.131Z,8.60
2022-12-23T20:51:57.338Z,8.50
2022-12-23T20:54:44.483Z,8.40
2022-12-23T20:57:31.842Z,8.50
2022-12-23T21:00:19.051Z,8.50
2022-12-23T21:03:10.599Z,8.50
2022-12-23T21:05:57.931Z,8.40
2022-12-23T21:08:45.038Z,8.40
2022-12-23T21:11:35.156Z,8.40
2022-12-23T21:14:22.305Z,8.40
2022-12-23T21:17:09.424Z,8.40
2022-12-23T21:19:58.299Z,8.40
2022-12-23T21:22:46.545Z,8.40
2022-12-23T21:25:33.644Z,8.40
2022-12-23T21:28:20.697Z,8.40
2022-12-23T21:31:09.037Z,8.40
2022-12-23T21:33:56.822Z,8.40
2022-12-23T21:36:44.065Z,8.40
2022-12-23T21:39:31.383Z,8.40
2022-12-23T21:42:18.517Z,8.70
2022-12-23T21:45:06.237Z,8.30
2022-12-23T21:47:53.288Z,8.30
2022-12-23T21:50:40.396Z,8.30
2022-12-23T21:53:27.618Z,8.30
2022-12-23T21:56:20.543Z,8.30
2022-12-23T21:59:12.868Z,8.30
2022-12-23T22:01:59.967Z,8.30
2022-12-23T22:04:46.998Z,8.30
2022-12-23T22:07:34.067Z,8.30
2022-12-23T22:10:21.065Z,8.30
2022-12-23T22:13:08.349Z,8.30
2022-12-23T22:15:55.434Z,8.30
2022-12-23T22:18:43.302Z,8.30
2022-12-23T22:21:32.237Z,8.30
2022-12-23T22:24:19.388Z,8.30
2022-12-23T22:27:06.502Z,8.30
2022-12-23T22:29:53.541Z,8.30
2022-12-23T22:32:42.744Z,8.30
2022-12-23T22:35:29.995Z,8.30
2022-12-23T22:38:17.093Z,8.30
2022-12-23T22:41:04.237Z,8.30
2022-12-23T22:43:51.542Z,8.30
2022-12-23T22:46:39.534Z,8.30
2022-12-23T22:49:27.026Z,8.30
2022-12-23T22:52:14.221Z,7.00
2022-12-23T22:55:01.289Z,8.30
2022-12-23T22:57:51.612Z,8.30
2022-12-23T23:00:38.607Z,8.40
2022-12-23T23:03:26.444Z,8.40
2022-12-23T23:06:13.588Z,8.40
2022-12-23T23:09:01.043Z,8.40
2022-12-23T23:11:50.242Z,8.40
2022-12-23T23:14:52.795Z,8.50
2022-12-23T23:17:39.812Z,8.50
2022-12-23T23:20:26.980Z,8.50
2022-12-23T23:23:14.108Z,8.50
2022-12-23T23:26:01.519Z,8.50
2022-12-23T23:28:48.715Z,8.50
2022-12-23T23:31:44.192Z,8.50
2022-12-23T23:34:32.712Z,8.50
2022-12-23T23:37:19.768Z,8.50
2022-12-23T23:40:07.555Z,8.50
2022-12-23T23:42:54.761Z,8.60
2022-12-23T23:45:41.863Z,8.60
2022-12-23T23:48:28.914Z,8.60
2022-12-23T23:51:16.096Z,8.50
2022-12-23T23:54:03.311Z,8.50
2022-12-23T23:56:50.357Z,8.50
2022-12-23T23:59:37.385Z,8.50
